sensor_id;sensor_type;location;lat;lon;timestamp;P1;durP1;ratioP1;P2;durP2;ratioP2
73136;SDS011;62977;45.636;11.750;2022-12-20T00:01:11;73.60;;;35.17;;
73136;SDS011;62977;45.636;11.750;2022-12-20T00:03:39;71.15;;;32.92;;
73136;SDS011;62977;45.636;11.750;2022-12-20T00:06:05;73.90;;;35.60;;
73136;SDS011;62977;45.636;11.750;2022-12-20T00:08:31;77.70;;;37.63;;
73136;SDS011;62977;45.636;11.750;2022-12-20T00:10:59;73.55;;;36.10;;
73136;SDS011;62977;45.636;11.750;2022-12-20T00:13:25;81.93;;;36.00;;
73136;SDS011;62977;45.636;11.750;2022-12-20T00:16:02;73.70;;;33.10;;
73136;SDS011;62977;45.636;11.750;2022-12-20T00:18:38;67.53;;;31.47;;
73136;SDS011;62977;45.636;11.750;2022-12-20T00:21:06;84.55;;;39.40;;
73136;SDS011;62977;45.636;11.750;2022-12-20T00:23:33;75.07;;;37.72;;
73136;SDS011;62977;45.636;11.750;2022-12-20T00:26:04;77.15;;;35.80;;
73136;SDS011;62977;45.636;11.750;2022-12-20T00:28:35;84.60;;;37.30;;
73136;SDS011;62977;45.636;11.750;2022-12-20T00:31:01;65.70;;;32.97;;
73136;SDS011;62977;45.636;11.750;2022-12-20T00:33:27;69.55;;;34.03;;
73136;SDS011;62977;45.636;11.750;2022-12-20T00:35:54;73.57;;;34.05;;
73136;SDS011;62977;45.636;11.750;2022-12-20T00:38:21;77.00;;;35.22;;
73136;SDS011;62977;45.636;11.750;2022-12-20T00:40:57;81.00;;;36.67;;
73136;SDS011;62977;45.636;11.750;2022-12-20T00:43:28;66.30;;;32.85;;
73136;SDS011;62977;45.636;11.750;2022-12-20T00:45:55;73.20;;;35.53;;
73136;SDS011;62977;45.636;11.750;2022-12-20T00:48:21;68.07;;;34.25;;
73136;SDS011;62977;45.636;11.750;2022-12-20T00:50:47;73.45;;;35.97;;
73136;SDS011;62977;45.636;11.750;2022-12-20T00:53:12;77.17;;;34.00;;
73136;SDS011;62977;45.636;11.750;2022-12-20T00:55:41;68.40;;;33.47;;
73136;SDS011;62977;45.636;11.750;2022-12-20T00:58:08;64.20;;;33.55;;
73136;SDS011;62977;45.636;11.750;2022-12-20T01:00:34;66.40;;;32.83;;
73136;SDS011;62977;45.636;11.750;2022-12-20T01:03:01;65.22;;;31.52;;
73136;SDS011;62977;45.636;11.750;2022-12-20T01:05:26;61.13;;;30.80;;
73136;SDS011;62977;45.636;11.750;2022-12-20T01:07:52;64.67;;;32.23;;
73136;SDS011;62977;45.636;11.750;2022-12-20T01:10:17;56.50;;;29.23;;
73136;SDS011;62977;45.636;11.750;2022-12-20T01:12:43;62.33;;;31.98;;
73136;SDS011;62977;45.636;11.750;2022-12-20T01:15:10;68.47;;;33.55;;
73136;SDS011;62977;45.636;11.750;2022-12-20T01:17:36;69.43;;;33.80;;
73136;SDS011;62977;45.636;11.750;2022-12-20T01:20:01;69.18;;;33.13;;
73136;SDS011;62977;45.636;11.750;2022-12-20T01:22:28;57.35;;;31.10;;
73136;SDS011;62977;45.636;11.750;2022-12-20T01:24:54;58.17;;;31.17;;
73136;SDS011;62977;45.636;11.750;2022-12-20T01:27:19;55.63;;;30.40;;
73136;SDS011;62977;45.636;11.750;2022-12-20T01:29:45;54.33;;;30.20;;
73136;SDS011;62977;45.636;11.750;2022-12-20T01:32:11;57.47;;;29.70;;
73136;SDS011;62977;45.636;11.750;2022-12-20T01:34:36;55.90;;;29.33;;
73136;SDS011;62977;45.636;11.750;2022-12-20T01:37:02;47.15;;;28.00;;
73136;SDS011;62977;45.636;11.750;2022-12-20T01:39:28;57.53;;;28.60;;
73136;SDS011;62977;45.636;11.750;2022-12-20T01:41:54;54.22;;;28.85;;
73136;SDS011;62977;45.636;11.750;2022-12-20T01:46:45;52.88;;;28.40;;
73136;SDS011;62977;45.636;11.750;2022-12-20T01:49:20;55.20;;;28.10;;
73136;SDS011;62977;45.636;11.750;2022-12-20T01:51:50;55.17;;;28.83;;
73136;SDS011;62977;45.636;11.750;2022-12-20T01:54:22;54.03;;;27.95;;
73136;SDS011;62977;45.636;11.750;2022-12-20T01:57:07;56.00;;;27.98;;
73136;SDS011;62977;45.636;11.750;2022-12-20T01:59:43;56.95;;;29.60;;
73136;SDS011;62977;45.636;11.750;2022-12-20T02:02:12;56.78;;;29.58;;
73136;SDS011;62977;45.636;11.750;2022-12-20T02:04:38;54.37;;;29.93;;
73136;SDS011;62977;45.636;11.750;2022-12-20T02:07:04;58.85;;;29.92;;
73136;SDS011;62977;45.636;11.750;2022-12-20T02:09:32;54.28;;;28.48;;
73136;SDS011;62977;45.636;11.750;2022-12-20T02:12:16;55.25;;;28.92;;
73136;SDS011;62977;45.636;11.750;2022-12-20T02:15:01;50.97;;;28.63;;
73136;SDS011;62977;45.636;11.750;2022-12-20T02:22:57;59.63;;;29.77;;
73136;SDS011;62977;45.636;11.750;2022-12-20T02:30:57;53.13;;;27.23;;
73136;SDS011;62977;45.636;11.750;2022-12-20T02:33:27;49.03;;;26.95;;
73136;SDS011;62977;45.636;11.750;2022-12-20T02:35:53;49.67;;;26.70;;
73136;SDS011;62977;45.636;11.750;2022-12-20T02:38:30;56.78;;;27.48;;
73136;SDS011;62977;45.636;11.750;2022-12-20T02:41:01;51.47;;;26.93;;
73136;SDS011;62977;45.636;11.750;2022-12-20T02:43:35;53.38;;;27.48;;
73136;SDS011;62977;45.636;11.750;2022-12-20T02:46:22;59.58;;;28.67;;
73136;SDS011;62977;45.636;11.750;2022-12-20T02:48:50;53.30;;;28.45;;
73136;SDS011;62977;45.636;11.750;2022-12-20T02:51:18;50.70;;;27.75;;
73136;SDS011;62977;45.636;11.750;2022-12-20T02:53:47;52.27;;;25.77;;
73136;SDS011;62977;45.636;11.750;2022-12-20T02:58:57;53.85;;;27.17;;
73136;SDS011;62977;45.636;11.750;2022-12-20T03:01:30;51.80;;;26.52;;
73136;SDS011;62977;45.636;11.750;2022-12-20T03:04:04;49.78;;;25.73;;
73136;SDS011;62977;45.636;11.750;2022-12-20T03:06:31;51.27;;;26.00;;
73136;SDS011;62977;45.636;11.750;2022-12-20T03:08:58;52.97;;;25.65;;
73136;SDS011;62977;45.636;11.750;2022-12-20T03:11:23;49.72;;;26.77;;
73136;SDS011;62977;45.636;11.750;2022-12-20T03:13:49;52.50;;;26.63;;
73136;SDS011;62977;45.636;11.750;2022-12-20T03:16:15;54.03;;;26.40;;
73136;SDS011;62977;45.636;11.750;2022-12-20T03:18:41;54.03;;;26.25;;
73136;SDS011;62977;45.636;11.750;2022-12-20T03:21:06;55.40;;;25.83;;
73136;SDS011;62977;45.636;11.750;2022-12-20T03:23:32;51.50;;;25.92;;
73136;SDS011;62977;45.636;11.750;2022-12-20T03:25:58;51.33;;;25.57;;
73136;SDS011;62977;45.636;11.750;2022-12-20T03:28:24;53.15;;;26.35;;
73136;SDS011;62977;45.636;11.750;2022-12-20T03:30:49;52.50;;;26.80;;
73136;SDS011;62977;45.636;11.750;2022-12-20T03:33:15;54.45;;;26.98;;
73136;SDS011;62977;45.636;11.750;2022-12-20T03:35:41;52.67;;;26.67;;
73136;SDS011;62977;45.636;11.750;2022-12-20T03:38:07;50.67;;;26.60;;
73136;SDS011;62977;45.636;11.750;2022-12-20T03:40:32;54.23;;;26.60;;
73136;SDS011;62977;45.636;11.750;2022-12-20T03:42:58;52.38;;;26.08;;
73136;SDS011;62977;45.636;11.750;2022-12-20T03:45:24;49.33;;;25.23;;
73136;SDS011;62977;45.636;11.750;2022-12-20T03:47:49;52.60;;;25.75;;
73136;SDS011;62977;45.636;11.750;2022-12-20T03:50:15;48.60;;;25.00;;
73136;SDS011;62977;45.636;11.750;2022-12-20T03:52:41;50.88;;;26.45;;
73136;SDS011;62977;45.636;11.750;2022-12-20T03:55:07;49.67;;;25.03;;
73136;SDS011;62977;45.636;11.750;2022-12-20T03:57:33;52.90;;;25.02;;
73136;SDS011;62977;45.636;11.750;2022-12-20T03:59:59;47.50;;;25.48;;
73136;SDS011;62977;45.636;11.750;2022-12-20T04:02:25;49.00;;;25.00;;
73136;SDS011;62977;45.636;11.750;2022-12-20T04:04:50;47.60;;;23.77;;
73136;SDS011;62977;45.636;11.750;2022-12-20T04:07:16;46.30;;;24.00;;
73136;SDS011;62977;45.636;11.750;2022-12-20T04:09:42;46.50;;;24.88;;
73136;SDS011;62977;45.636;11.750;2022-12-20T04:12:08;45.63;;;23.67;;
73136;SDS011;62977;45.636;11.750;2022-12-20T04:14:33;47.03;;;24.52;;
73136;SDS011;62977;45.636;11.750;2022-12-20T04:17:00;44.72;;;23.33;;
73136;SDS011;62977;45.636;11.750;2022-12-20T04:19:25;44.23;;;22.90;;
73136;SDS011;62977;45.636;11.750;2022-12-20T04:21:51;56.55;;;23.75;;
73136;SDS011;62977;45.636;11.750;2022-12-20T04:24:19;51.30;;;24.37;;
73136;SDS011;62977;45.636;11.750;2022-12-20T04:26:45;45.25;;;23.92;;
73136;SDS011;62977;45.636;11.750;2022-12-20T04:29:11;44.75;;;22.75;;
73136;SDS011;62977;45.636;11.750;2022-12-20T04:31:37;49.97;;;24.80;;
73136;SDS011;62977;45.636;11.750;2022-12-20T04:34:02;44.57;;;24.07;;
73136;SDS011;62977;45.636;11.750;2022-12-20T04:36:28;43.20;;;22.90;;
73136;SDS011;62977;45.636;11.750;2022-12-20T04:38:54;46.37;;;22.40;;
73136;SDS011;62977;45.636;11.750;2022-12-20T04:41:19;42.60;;;22.77;;
73136;SDS011;62977;45.636;11.750;2022-12-20T04:43:49;44.97;;;21.77;;
73136;SDS011;62977;45.636;11.750;2022-12-20T04:46:16;38.05;;;20.15;;
73136;SDS011;62977;45.636;11.750;2022-12-20T04:48:42;44.00;;;22.37;;
73136;SDS011;62977;45.636;11.750;2022-12-20T04:51:08;47.05;;;22.85;;
73136;SDS011;62977;45.636;11.750;2022-12-20T04:53:33;44.47;;;22.87;;
73136;SDS011;62977;45.636;11.750;2022-12-20T04:56:12;47.45;;;22.35;;
73136;SDS011;62977;45.636;11.750;2022-12-20T04:58:39;48.88;;;24.27;;
73136;SDS011;62977;45.636;11.750;2022-12-20T05:01:05;40.77;;;21.70;;
73136;SDS011;62977;45.636;11.750;2022-12-20T05:03:30;44.30;;;22.37;;
73136;SDS011;62977;45.636;11.750;2022-12-20T05:05:56;47.70;;;22.65;;
73136;SDS011;62977;45.636;11.750;2022-12-20T05:08:22;40.60;;;20.73;;
73136;SDS011;62977;45.636;11.750;2022-12-20T05:10:48;41.97;;;22.58;;
73136;SDS011;62977;45.636;11.750;2022-12-20T05:13:14;49.73;;;23.97;;
73136;SDS011;62977;45.636;11.750;2022-12-20T05:15:40;48.20;;;22.40;;
73136;SDS011;62977;45.636;11.750;2022-12-20T05:18:06;53.63;;;24.63;;
73136;SDS011;62977;45.636;11.750;2022-12-20T05:20:32;46.70;;;23.67;;
73136;SDS011;62977;45.636;11.750;2022-12-20T05:22:57;47.42;;;23.42;;
73136;SDS011;62977;45.636;11.750;2022-12-20T05:25:43;47.10;;;23.50;;
73136;SDS011;62977;45.636;11.750;2022-12-20T05:28:29;44.67;;;22.80;;
73136;SDS011;62977;45.636;11.750;2022-12-20T05:30:55;47.07;;;22.47;;
73136;SDS011;62977;45.636;11.750;2022-12-20T05:33:21;46.83;;;23.85;;
73136;SDS011;62977;45.636;11.750;2022-12-20T05:35:47;77.03;;;35.00;;
73136;SDS011;62977;45.636;11.750;2022-12-20T05:38:13;68.90;;;32.97;;
73136;SDS011;62977;45.636;11.750;2022-12-20T05:40:38;65.90;;;32.63;;
73136;SDS011;62977;45.636;11.750;2022-12-20T05:43:05;72.28;;;31.58;;
73136;SDS011;62977;45.636;11.750;2022-12-20T05:45:32;49.57;;;26.13;;
73136;SDS011;62977;45.636;11.750;2022-12-20T05:47:57;52.50;;;26.30;;
73136;SDS011;62977;45.636;11.750;2022-12-20T05:50:24;47.60;;;24.75;;
73136;SDS011;62977;45.636;11.750;2022-12-20T05:52:49;51.55;;;23.77;;
73136;SDS011;62977;45.636;11.750;2022-12-20T05:55:15;46.37;;;22.87;;
73136;SDS011;62977;45.636;11.750;2022-12-20T05:57:41;41.22;;;22.45;;
73136;SDS011;62977;45.636;11.750;2022-12-20T06:00:07;50.40;;;25.30;;
73136;SDS011;62977;45.636;11.750;2022-12-20T06:02:34;48.40;;;23.67;;
73136;SDS011;62977;45.636;11.750;2022-12-20T06:05:00;39.53;;;19.87;;
73136;SDS011;62977;45.636;11.750;2022-12-20T06:07:26;42.53;;;21.50;;
73136;SDS011;62977;45.636;11.750;2022-12-20T06:09:53;42.90;;;22.60;;
73136;SDS011;62977;45.636;11.750;2022-12-20T06:12:19;47.60;;;21.38;;
73136;SDS011;62977;45.636;11.750;2022-12-20T06:14:45;39.50;;;19.83;;
73136;SDS011;62977;45.636;11.750;2022-12-20T06:17:12;42.70;;;20.67;;
73136;SDS011;62977;45.636;11.750;2022-12-20T06:19:37;39.75;;;20.08;;
73136;SDS011;62977;45.636;11.750;2022-12-20T06:22:05;37.40;;;20.63;;
73136;SDS011;62977;45.636;11.750;2022-12-20T06:24:32;36.35;;;19.92;;
73136;SDS011;62977;45.636;11.750;2022-12-20T06:26:58;35.38;;;19.90;;
73136;SDS011;62977;45.636;11.750;2022-12-20T06:29:24;32.23;;;18.90;;
73136;SDS011;62977;45.636;11.750;2022-12-20T06:31:50;34.70;;;19.63;;
73136;SDS011;62977;45.636;11.750;2022-12-20T06:34:16;35.53;;;19.43;;
73136;SDS011;62977;45.636;11.750;2022-12-20T06:36:42;35.83;;;19.05;;
73136;SDS011;62977;45.636;11.750;2022-12-20T06:39:08;36.33;;;18.83;;
73136;SDS011;62977;45.636;11.750;2022-12-20T06:41:34;37.60;;;19.67;;
73136;SDS011;62977;45.636;11.750;2022-12-20T06:44:01;38.00;;;19.55;;
73136;SDS011;62977;45.636;11.750;2022-12-20T06:46:26;37.00;;;18.95;;
73136;SDS011;62977;45.636;11.750;2022-12-20T06:48:54;38.37;;;19.37;;
73136;SDS011;62977;45.636;11.750;2022-12-20T06:51:21;37.47;;;20.05;;
73136;SDS011;62977;45.636;11.750;2022-12-20T06:53:46;36.38;;;19.92;;
73136;SDS011;62977;45.636;11.750;2022-12-20T06:56:12;42.97;;;20.73;;
73136;SDS011;62977;45.636;11.750;2022-12-20T06:58:38;41.60;;;20.52;;
73136;SDS011;62977;45.636;11.750;2022-12-20T07:01:03;37.87;;;19.73;;
73136;SDS011;62977;45.636;11.750;2022-12-20T07:03:29;39.75;;;20.05;;
73136;SDS011;62977;45.636;11.750;2022-12-20T07:05:55;42.40;;;22.67;;
73136;SDS011;62977;45.636;11.750;2022-12-20T07:08:21;45.65;;;24.60;;
73136;SDS011;62977;45.636;11.750;2022-12-20T07:10:48;47.40;;;24.27;;
73136;SDS011;62977;45.636;11.750;2022-12-20T07:13:14;40.20;;;22.07;;
73136;SDS011;62977;45.636;11.750;2022-12-20T07:15:40;39.58;;;21.88;;
73136;SDS011;62977;45.636;11.750;2022-12-20T07:18:05;39.15;;;21.42;;
73136;SDS011;62977;45.636;11.750;2022-12-20T07:20:31;42.60;;;22.87;;
73136;SDS011;62977;45.636;11.750;2022-12-20T07:22:57;48.63;;;25.13;;
73136;SDS011;62977;45.636;11.750;2022-12-20T07:25:24;44.92;;;23.60;;
73136;SDS011;62977;45.636;11.750;2022-12-20T07:27:49;43.03;;;24.20;;
73136;SDS011;62977;45.636;11.750;2022-12-20T07:30:16;42.88;;;23.17;;
73136;SDS011;62977;45.636;11.750;2022-12-20T07:32:43;40.20;;;21.48;;
73136;SDS011;62977;45.636;11.750;2022-12-20T07:35:09;60.30;;;25.90;;
73136;SDS011;62977;45.636;11.750;2022-12-20T07:37:35;56.65;;;26.35;;
73136;SDS011;62977;45.636;11.750;2022-12-20T07:40:02;45.63;;;22.77;;
73136;SDS011;62977;45.636;11.750;2022-12-20T07:42:28;52.30;;;23.98;;
73136;SDS011;62977;45.636;11.750;2022-12-20T07:44:53;41.10;;;21.30;;
73136;SDS011;62977;45.636;11.750;2022-12-20T07:47:19;37.13;;;19.67;;
73136;SDS011;62977;45.636;11.750;2022-12-20T07:49:45;35.83;;;19.73;;
73136;SDS011;62977;45.636;11.750;2022-12-20T07:52:11;45.27;;;23.03;;
73136;SDS011;62977;45.636;11.750;2022-12-20T07:54:49;47.30;;;23.77;;
73136;SDS011;62977;45.636;11.750;2022-12-20T07:57:20;46.80;;;25.58;;
73136;SDS011;62977;45.636;11.750;2022-12-20T07:59:53;52.13;;;26.15;;
73136;SDS011;62977;45.636;11.750;2022-12-20T08:02:24;46.35;;;25.45;;
73136;SDS011;62977;45.636;11.750;2022-12-20T08:04:55;47.33;;;25.60;;
73136;SDS011;62977;45.636;11.750;2022-12-20T08:07:21;48.67;;;26.42;;
73136;SDS011;62977;45.636;11.750;2022-12-20T08:09:47;47.88;;;27.00;;
73136;SDS011;62977;45.636;11.750;2022-12-20T08:12:14;53.25;;;28.10;;
73136;SDS011;62977;45.636;11.750;2022-12-20T08:14:41;46.97;;;26.60;;
73136;SDS011;62977;45.636;11.750;2022-12-20T08:17:08;47.88;;;26.30;;
73136;SDS011;62977;45.636;11.750;2022-12-20T08:19:35;44.65;;;25.77;;
73136;SDS011;62977;45.636;11.750;2022-12-20T08:22:00;44.60;;;26.07;;
73136;SDS011;62977;45.636;11.750;2022-12-20T08:24:26;46.88;;;25.98;;
73136;SDS011;62977;45.636;11.750;2022-12-20T08:26:52;45.97;;;25.27;;
73136;SDS011;62977;45.636;11.750;2022-12-20T08:29:17;44.20;;;24.98;;
73136;SDS011;62977;45.636;11.750;2022-12-20T08:31:43;43.10;;;24.53;;
73136;SDS011;62977;45.636;11.750;2022-12-20T08:34:09;42.78;;;24.15;;
73136;SDS011;62977;45.636;11.750;2022-12-20T08:36:35;46.60;;;23.77;;
73136;SDS011;62977;45.636;11.750;2022-12-20T08:39:01;39.92;;;23.58;;
73136;SDS011;62977;45.636;11.750;2022-12-20T08:41:28;42.55;;;23.48;;
73136;SDS011;62977;45.636;11.750;2022-12-20T08:43:53;38.07;;;20.97;;
73136;SDS011;62977;45.636;11.750;2022-12-20T08:46:19;36.40;;;20.52;;
73136;SDS011;62977;45.636;11.750;2022-12-20T08:48:45;42.33;;;21.20;;
73136;SDS011;62977;45.636;11.750;2022-12-20T08:51:10;39.20;;;21.87;;
73136;SDS011;62977;45.636;11.750;2022-12-20T08:53:36;43.40;;;22.45;;
73136;SDS011;62977;45.636;11.750;2022-12-20T08:56:06;47.30;;;21.92;;
73136;SDS011;62977;45.636;11.750;2022-12-20T08:58:34;41.30;;;22.25;;
73136;SDS011;62977;45.636;11.750;2022-12-20T09:01:02;34.63;;;19.73;;
73136;SDS011;62977;45.636;11.750;2022-12-20T09:03:29;37.80;;;18.92;;
73136;SDS011;62977;45.636;11.750;2022-12-20T09:05:58;34.80;;;19.48;;
73136;SDS011;62977;45.636;11.750;2022-12-20T09:08:25;37.67;;;19.95;;
73136;SDS011;62977;45.636;11.750;2022-12-20T09:10:51;39.47;;;19.92;;
73136;SDS011;62977;45.636;11.750;2022-12-20T09:13:17;37.43;;;19.57;;
73136;SDS011;62977;45.636;11.750;2022-12-20T09:15:43;41.58;;;20.92;;
73136;SDS011;62977;45.636;11.750;2022-12-20T09:18:10;42.58;;;21.70;;
73136;SDS011;62977;45.636;11.750;2022-12-20T09:20:40;37.72;;;21.55;;
73136;SDS011;62977;45.636;11.750;2022-12-20T09:23:08;51.67;;;25.15;;
73136;SDS011;62977;45.636;11.750;2022-12-20T09:25:33;44.27;;;24.33;;
73136;SDS011;62977;45.636;11.750;2022-12-20T09:28:01;41.58;;;23.20;;
73136;SDS011;62977;45.636;11.750;2022-12-20T09:30:28;40.42;;;22.65;;
73136;SDS011;62977;45.636;11.750;2022-12-20T09:32:53;48.03;;;23.97;;
73136;SDS011;62977;45.636;11.750;2022-12-20T09:35:21;39.63;;;23.20;;
73136;SDS011;62977;45.636;11.750;2022-12-20T09:37:46;37.80;;;20.60;;
73136;SDS011;62977;45.636;11.750;2022-12-20T09:40:16;29.05;;;17.05;;
73136;SDS011;62977;45.636;11.750;2022-12-20T09:42:45;30.10;;;17.40;;
73136;SDS011;62977;45.636;11.750;2022-12-20T09:45:14;31.77;;;17.42;;
73136;SDS011;62977;45.636;11.750;2022-12-20T09:47:50;28.02;;;16.00;;
73136;SDS011;62977;45.636;11.750;2022-12-20T09:50:16;30.33;;;15.88;;
73136;SDS011;62977;45.636;11.750;2022-12-20T09:55:36;41.03;;;19.43;;
73136;SDS011;62977;45.636;11.750;2022-12-20T10:00:46;32.40;;;16.73;;
73136;SDS011;62977;45.636;11.750;2022-12-20T10:03:17;37.03;;;18.95;;
73136;SDS011;62977;45.636;11.750;2022-12-20T10:05:54;26.85;;;15.90;;
73136;SDS011;62977;45.636;11.750;2022-12-20T10:16:52;36.75;;;19.45;;
73136;SDS011;62977;45.636;11.750;2022-12-20T10:22:19;32.80;;;19.67;;
73136;SDS011;62977;45.636;11.750;2022-12-20T10:27:41;39.55;;;20.75;;
73136;SDS011;62977;45.636;11.750;2022-12-20T10:30:15;34.00;;;19.65;;
73136;SDS011;62977;45.636;11.750;2022-12-20T10:32:52;34.47;;;18.40;;
73136;SDS011;62977;45.636;11.750;2022-12-20T10:40:32;37.70;;;19.13;;
73136;SDS011;62977;45.636;11.750;2022-12-20T10:43:01;33.10;;;18.40;;
73136;SDS011;62977;45.636;11.750;2022-12-20T10:45:35;30.50;;;18.55;;
73136;SDS011;62977;45.636;11.750;2022-12-20T10:48:04;36.23;;;18.00;;
73136;SDS011;62977;45.636;11.750;2022-12-20T10:50:54;36.33;;;18.00;;
73136;SDS011;62977;45.636;11.750;2022-12-20T10:53:25;33.45;;;19.08;;
73136;SDS011;62977;45.636;11.750;2022-12-20T10:55:53;37.50;;;20.02;;
73136;SDS011;62977;45.636;11.750;2022-12-20T10:58:35;43.85;;;19.27;;
73136;SDS011;62977;45.636;11.750;2022-12-20T11:01:13;34.87;;;18.13;;
73136;SDS011;62977;45.636;11.750;2022-12-20T11:06:28;34.63;;;19.15;;
73136;SDS011;62977;45.636;11.750;2022-12-20T11:12:01;37.95;;;20.83;;
73136;SDS011;62977;45.636;11.750;2022-12-20T11:14:30;41.77;;;21.30;;
73136;SDS011;62977;45.636;11.750;2022-12-20T11:16:58;54.15;;;22.10;;
73136;SDS011;62977;45.636;11.750;2022-12-20T11:25:19;37.28;;;18.75;;
73136;SDS011;62977;45.636;11.750;2022-12-20T11:28:28;38.33;;;16.97;;
73136;SDS011;62977;45.636;11.750;2022-12-20T11:31:14;32.22;;;17.60;;
73136;SDS011;62977;45.636;11.750;2022-12-20T11:41:42;28.33;;;15.07;;
73136;SDS011;62977;45.636;11.750;2022-12-20T11:50:02;27.33;;;14.00;;
73136;SDS011;62977;45.636;11.750;2022-12-20T12:01:06;28.75;;;15.15;;
73136;SDS011;62977;45.636;11.750;2022-12-20T12:03:38;28.67;;;15.07;;
73136;SDS011;62977;45.636;11.750;2022-12-20T12:06:19;29.13;;;15.25;;
73136;SDS011;62977;45.636;11.750;2022-12-20T12:11:39;30.20;;;15.30;;
73136;SDS011;62977;45.636;11.750;2022-12-20T12:14:45;29.73;;;16.17;;
73136;SDS011;62977;45.636;11.750;2022-12-20T12:17:08;29.97;;;15.37;;
73136;SDS011;62977;45.636;11.750;2022-12-20T12:19:40;31.33;;;15.48;;
73136;SDS011;62977;45.636;11.750;2022-12-20T12:22:12;27.02;;;13.45;;
73136;SDS011;62977;45.636;11.750;2022-12-20T12:24:44;25.80;;;14.00;;
73136;SDS011;62977;45.636;11.750;2022-12-20T12:27:22;24.50;;;13.18;;
73136;SDS011;62977;45.636;11.750;2022-12-20T12:29:51;26.47;;;13.77;;
73136;SDS011;62977;45.636;11.750;2022-12-20T12:41:22;21.38;;;11.40;;
73136;SDS011;62977;45.636;11.750;2022-12-20T12:46:26;25.25;;;14.15;;
73136;SDS011;62977;45.636;11.750;2022-12-20T12:51:25;27.92;;;12.35;;
73136;SDS011;62977;45.636;11.750;2022-12-20T12:54:01;30.00;;;13.65;;
73136;SDS011;62977;45.636;11.750;2022-12-20T12:56:30;25.43;;;13.30;;
73136;SDS011;62977;45.636;11.750;2022-12-20T13:04:09;26.80;;;13.70;;
73136;SDS011;62977;45.636;11.750;2022-12-20T13:11:50;29.05;;;14.27;;
73136;SDS011;62977;45.636;11.750;2022-12-20T13:16:45;24.23;;;14.80;;
73136;SDS011;62977;45.636;11.750;2022-12-20T13:19:16;35.08;;;15.65;;
73136;SDS011;62977;45.636;11.750;2022-12-20T13:27:35;22.60;;;14.13;;
73136;SDS011;62977;45.636;11.750;2022-12-20T13:37:51;23.75;;;13.70;;
73136;SDS011;62977;45.636;11.750;2022-12-20T13:40:42;29.52;;;14.45;;
73136;SDS011;62977;45.636;11.750;2022-12-20T13:45:47;33.53;;;15.25;;
73136;SDS011;62977;45.636;11.750;2022-12-20T13:51:27;28.10;;;13.23;;
73136;SDS011;62977;45.636;11.750;2022-12-20T13:53:55;23.65;;;12.25;;
73136;SDS011;62977;45.636;11.750;2022-12-20T13:56:47;23.10;;;11.98;;
73136;SDS011;62977;45.636;11.750;2022-12-20T14:01:56;30.27;;;15.15;;
73136;SDS011;62977;45.636;11.750;2022-12-20T14:04:25;31.70;;;14.80;;
73136;SDS011;62977;45.636;11.750;2022-12-20T14:07:02;31.55;;;14.85;;
73136;SDS011;62977;45.636;11.750;2022-12-20T14:09:35;27.35;;;13.65;;
73136;SDS011;62977;45.636;11.750;2022-12-20T14:12:20;27.88;;;13.40;;
73136;SDS011;62977;45.636;11.750;2022-12-20T14:14:47;27.02;;;13.60;;
73136;SDS011;62977;45.636;11.750;2022-12-20T14:17:25;27.53;;;13.50;;
73136;SDS011;62977;45.636;11.750;2022-12-20T14:22:35;28.85;;;13.90;;
73136;SDS011;62977;45.636;11.750;2022-12-20T14:25:04;25.38;;;12.88;;
73136;SDS011;62977;45.636;11.750;2022-12-20T14:27:32;30.20;;;15.27;;
73136;SDS011;62977;45.636;11.750;2022-12-20T14:30:00;26.17;;;13.87;;
73136;SDS011;62977;45.636;11.750;2022-12-20T14:32:26;23.92;;;13.00;;
73136;SDS011;62977;45.636;11.750;2022-12-20T14:34:52;28.25;;;13.27;;
73136;SDS011;62977;45.636;11.750;2022-12-20T14:42:37;31.02;;;14.57;;
73136;SDS011;62977;45.636;11.750;2022-12-20T14:45:25;28.95;;;15.05;;
73136;SDS011;62977;45.636;11.750;2022-12-20T14:50:32;28.88;;;14.48;;
73136;SDS011;62977;45.636;11.750;2022-12-20T14:53:02;33.67;;;15.90;;
73136;SDS011;62977;45.636;11.750;2022-12-20T14:55:36;43.05;;;16.25;;
73136;SDS011;62977;45.636;11.750;2022-12-20T15:00:58;31.00;;;15.93;;
73136;SDS011;62977;45.636;11.750;2022-12-20T15:03:26;31.73;;;16.88;;
73136;SDS011;62977;45.636;11.750;2022-12-20T15:05:56;32.60;;;17.57;;
73136;SDS011;62977;45.636;11.750;2022-12-20T15:13:39;36.65;;;18.90;;
73136;SDS011;62977;45.636;11.750;2022-12-20T15:18:43;32.00;;;17.33;;
73136;SDS011;62977;45.636;11.750;2022-12-20T15:23:48;39.47;;;19.00;;
73136;SDS011;62977;45.636;11.750;2022-12-20T15:26:16;35.88;;;17.98;;
73136;SDS011;62977;45.636;11.750;2022-12-20T15:28:44;35.42;;;16.75;;
73136;SDS011;62977;45.636;11.750;2022-12-20T15:31:14;41.67;;;20.23;;
73136;SDS011;62977;45.636;11.750;2022-12-20T15:33:42;34.67;;;18.15;;
73136;SDS011;62977;45.636;11.750;2022-12-20T15:36:15;33.25;;;17.13;;
73136;SDS011;62977;45.636;11.750;2022-12-20T15:38:42;36.67;;;19.77;;
73136;SDS011;62977;45.636;11.750;2022-12-20T15:41:12;37.30;;;16.30;;
73136;SDS011;62977;45.636;11.750;2022-12-20T15:43:53;38.33;;;19.83;;
73136;SDS011;62977;45.636;11.750;2022-12-20T15:46:21;44.75;;;20.27;;
73136;SDS011;62977;45.636;11.750;2022-12-20T15:48:47;42.28;;;20.88;;
73136;SDS011;62977;45.636;11.750;2022-12-20T15:51:17;49.20;;;21.93;;
73136;SDS011;62977;45.636;11.750;2022-12-20T15:53:50;44.22;;;21.52;;
73136;SDS011;62977;45.636;11.750;2022-12-20T15:56:17;40.22;;;21.67;;
73136;SDS011;62977;45.636;11.750;2022-12-20T15:58:45;43.33;;;21.30;;
73136;SDS011;62977;45.636;11.750;2022-12-20T16:01:13;43.08;;;23.88;;
73136;SDS011;62977;45.636;11.750;2022-12-20T16:03:42;46.40;;;23.30;;
73136;SDS011;62977;45.636;11.750;2022-12-20T16:06:11;42.93;;;24.30;;
73136;SDS011;62977;45.636;11.750;2022-12-20T16:08:40;44.75;;;22.83;;
73136;SDS011;62977;45.636;11.750;2022-12-20T16:11:06;41.58;;;21.98;;
73136;SDS011;62977;45.636;11.750;2022-12-20T16:13:44;41.42;;;22.63;;
73136;SDS011;62977;45.636;11.750;2022-12-20T16:16:22;48.25;;;26.10;;
73136;SDS011;62977;45.636;11.750;2022-12-20T16:18:50;49.03;;;25.60;;
73136;SDS011;62977;45.636;11.750;2022-12-20T16:21:18;48.28;;;25.60;;
73136;SDS011;62977;45.636;11.750;2022-12-20T16:24:14;52.75;;;25.20;;
73136;SDS011;62977;45.636;11.750;2022-12-20T16:26:42;47.40;;;24.58;;
73136;SDS011;62977;45.636;11.750;2022-12-20T16:29:07;50.42;;;25.75;;
73136;SDS011;62977;45.636;11.750;2022-12-20T16:31:37;47.90;;;25.20;;
73136;SDS011;62977;45.636;11.750;2022-12-20T16:34:04;56.20;;;28.73;;
73136;SDS011;62977;45.636;11.750;2022-12-20T16:36:31;55.25;;;27.55;;
73136;SDS011;62977;45.636;11.750;2022-12-20T16:38:57;50.20;;;27.10;;
73136;SDS011;62977;45.636;11.750;2022-12-20T16:41:24;91.88;;;38.53;;
73136;SDS011;62977;45.636;11.750;2022-12-20T16:43:52;73.20;;;33.45;;
73136;SDS011;62977;45.636;11.750;2022-12-20T16:46:20;84.28;;;36.80;;
73136;SDS011;62977;45.636;11.750;2022-12-20T16:48:47;80.70;;;35.88;;